sensor_id;sensor_type;location;lat;lon;timestamp;pressure;altitude;pressure_sealevel;temperature;humidity
79527;BME280;68974;47.754;-3.364;2024-03-17T00:02:02;101713.09;;;12.13;96.89
79527;BME280;68974;47.754;-3.364;2024-03-17T00:04:28;101703.19;;;12.12;97.08
79527;BME280;68974;47.754;-3.364;2024-03-17T00:06:53;101709.19;;;12.04;97.42
79527;BME280;68974;47.754;-3.364;2024-03-17T00:09:19;101698.72;;;12.01;97.48
79527;BME280;68974;47.754;-3.364;2024-03-17T00:11:45;101674.50;;;12.03;97.29
79527;BME280;68974;47.754;-3.364;2024-03-17T00:14:11;101675.13;;;12.15;96.91
79527;BME280;68974;47.754;-3.364;2024-03-17T00:16:37;101680.03;;;12.08;96.96
79527;BME280;68974;47.754;-3.364;2024-03-17T00:19:03;101685.06;;;12.22;96.52
79527;BME280;68974;47.754;-3.364;2024-03-17T00:21:28;101687.75;;;12.06;96.93
79527;BME280;68974;47.754;-3.364;2024-03-17T00:23:54;101713.09;;;12.13;97.29
79527;BME280;68974;47.754;-3.364;2024-03-17T00:26:19;101717.75;;;12.08;97.39
79527;BME280;68974;47.754;-3.364;2024-03-17T00:28:46;101702.03;;;12.03;97.63
79527;BME280;68974;47.754;-3.364;2024-03-17T00:31:13;101702.59;;;12.05;97.59
79527;BME280;68974;47.754;-3.364;2024-03-17T00:33:40;101689.38;;;12.07;98.11
79527;BME280;68974;47.754;-3.364;2024-03-17T00:36:06;101685.78;;;12.02;98.31
79527;BME280;68974;47.754;-3.364;2024-03-17T00:38:31;101679.47;;;12.01;98.46
79527;BME280;68974;47.754;-3.364;2024-03-17T00:40:57;101674.78;;;12.02;98.19
79527;BME280;68974;47.754;-3.364;2024-03-17T00:43:22;101679.47;;;12.06;97.94
79527;BME280;68974;47.754;-3.364;2024-03-17T00:45:51;101673.94;;;12.01;98.70
79527;BME280;68974;47.754;-3.364;2024-03-17T00:48:17;101662.94;;;12.01;98.58
79527;BME280;68974;47.754;-3.364;2024-03-17T00:50:44;101667.88;;;11.99;98.83
79527;BME280;68974;47.754;-3.364;2024-03-17T00:53:10;101667.84;;;11.94;99.11
79527;BME280;68974;47.754;-3.364;2024-03-17T00:55:36;101666.78;;;12.00;99.28
79527;BME280;68974;47.754;-3.364;2024-03-17T00:58:02;101652.97;;;11.95;99.15
79527;BME280;68974;47.754;-3.364;2024-03-17T01:00:28;101651.34;;;11.99;99.19
79527;BME280;68974;47.754;-3.364;2024-03-17T01:02:54;101646.94;;;11.98;99.25
79527;BME280;68974;47.754;-3.364;2024-03-17T01:05:19;101653.53;;;11.97;99.45
79527;BME280;68974;47.754;-3.364;2024-03-17T01:07:45;101646.03;;;11.83;99.70
79527;BME280;68974;47.754;-3.364;2024-03-17T01:10:12;101642.81;;;11.96;99.58
79527;BME280;68974;47.754;-3.364;2024-03-17T01:12:37;101637.00;;;11.92;99.13
79527;BME280;68974;47.754;-3.364;2024-03-17T01:15:05;101634.81;;;11.94;99.72
79527;BME280;68974;47.754;-3.364;2024-03-17T01:17:30;101634.22;;;11.87;99.69
79527;BME280;68974;47.754;-3.364;2024-03-17T01:19:56;101629.53;;;11.88;99.84
79527;BME280;68974;47.754;-3.364;2024-03-17T01:22:21;101641.69;;;11.92;100.00
79527;BME280;68974;47.754;-3.364;2024-03-17T01:24:47;101632.56;;;11.86;100.00
79527;BME280;68974;47.754;-3.364;2024-03-17T01:27:13;101630.34;;;11.83;100.00
79527;BME280;68974;47.754;-3.364;2024-03-17T01:29:44;101625.34;;;11.75;100.00
79527;BME280;68974;47.754;-3.364;2024-03-17T01:32:10;101627.56;;;11.78;100.00
79527;BME280;68974;47.754;-3.364;2024-03-17T01:34:39;101614.34;;;11.75;100.00
79527;BME280;68974;47.754;-3.364;2024-03-17T01:37:05;101607.16;;;11.74;100.00
79527;BME280;68974;47.754;-3.364;2024-03-17T01:39:31;101604.38;;;11.69;100.00
79527;BME280;68974;47.754;-3.364;2024-03-17T01:41:58;101605.00;;;11.76;100.00
79527;BME280;68974;47.754;-3.364;2024-03-17T01:44:26;101592.91;;;11.82;100.00
79527;BME280;68974;47.754;-3.364;2024-03-17T01:46:53;101596.47;;;11.78;100.00
79527;BME280;68974;47.754;-3.364;2024-03-17T01:49:20;101597.03;;;11.85;100.00
79527;BME280;68974;47.754;-3.364;2024-03-17T01:51:47;101596.16;;;11.74;100.00
79527;BME280;68974;47.754;-3.364;2024-03-17T01:54:13;101600.59;;;11.80;100.00
79527;BME280;68974;47.754;-3.364;2024-03-17T01:56:39;101592.06;;;11.77;100.00
79527;BME280;68974;47.754;-3.364;2024-03-17T01:59:07;101589.50;;;11.70;100.00
79527;BME280;68974;47.754;-3.364;2024-03-17T02:01:32;101586.59;;;11.82;100.00
79527;BME280;68974;47.754;-3.364;2024-03-17T02:03:59;101563.75;;;11.86;100.00
79527;BME280;68974;47.754;-3.364;2024-03-17T02:06:24;101568.69;;;11.84;100.00
79527;BME280;68974;47.754;-3.364;2024-03-17T02:08:51;101560.41;;;11.84;100.00
79527;BME280;68974;47.754;-3.364;2024-03-17T02:11:25;101539.50;;;11.83;100.00
79527;BME280;68974;47.754;-3.364;2024-03-17T02:13:52;101547.22;;;11.81;100.00
79527;BME280;68974;47.754;-3.364;2024-03-17T02:16:17;101552.44;;;11.78;100.00
79527;BME280;68974;47.754;-3.364;2024-03-17T02:18:44;101540.28;;;11.73;100.00
79527;BME280;68974;47.754;-3.364;2024-03-17T02:21:09;101544.44;;;11.76;100.00
79527;BME280;68974;47.754;-3.364;2024-03-17T02:23:35;101541.13;;;11.79;100.00
79527;BME280;68974;47.754;-3.364;2024-03-17T02:26:01;101541.97;;;11.80;100.00
79527;BME280;68974;47.754;-3.364;2024-03-17T02:28:26;101532.59;;;11.76;100.00
79527;BME280;68974;47.754;-3.364;2024-03-17T02:30:51;101524.63;;;11.79;100.00
79527;BME280;68974;47.754;-3.364;2024-03-17T02:33:17;101517.19;;;11.80;100.00
79527;BME280;68974;47.754;-3.364;2024-03-17T02:35:43;101524.13;;;11.87;100.00
79527;BME280;68974;47.754;-3.364;2024-03-17T02:38:09;101520.78;;;11.85;100.00
79527;BME280;68974;47.754;-3.364;2024-03-17T02:40:40;101501.81;;;11.89;100.00
79527;BME280;68974;47.754;-3.364;2024-03-17T02:43:05;101508.72;;;11.91;100.00
79527;BME280;68974;47.754;-3.364;2024-03-17T02:45:31;101496.59;;;11.87;100.00
79527;BME280;68974;47.754;-3.364;2024-03-17T02:47:57;101502.09;;;11.92;100.00
79527;BME280;68974;47.754;-3.364;2024-03-17T02:50:22;101489.97;;;11.88;100.00
79527;BME280;68974;47.754;-3.364;2024-03-17T02:52:48;101500.44;;;11.86;100.00
79527;BME280;68974;47.754;-3.364;2024-03-17T02:55:14;101493.00;;;11.92;100.00
79527;BME280;68974;47.754;-3.364;2024-03-17T02:57:39;101492.44;;;11.90;100.00
79527;BME280;68974;47.754;-3.364;2024-03-17T03:00:06;101487.19;;;11.83;100.00
79527;BME280;68974;47.754;-3.364;2024-03-17T03:02:34;101480.03;;;11.77;100.00
79527;BME280;68974;47.754;-3.364;2024-03-17T03:04:59;101482.81;;;11.82;100.00
79527;BME280;68974;47.754;-3.364;2024-03-17T03:07:25;101476.72;;;11.80;100.00
79527;BME280;68974;47.754;-3.364;2024-03-17T03:09:51;101465.44;;;11.77;100.00
79527;BME280;68974;47.754;-3.364;2024-03-17T03:12:16;101464.34;;;11.78;100.00
79527;BME280;68974;47.754;-3.364;2024-03-17T03:14:42;101459.69;;;11.88;100.00
79527;BME280;68974;47.754;-3.364;2024-03-17T03:17:07;101449.22;;;11.85;100.00
79527;BME280;68974;47.754;-3.364;2024-03-17T03:19:33;101446.72;;;11.84;100.00
79527;BME280;68974;47.754;-3.364;2024-03-17T03:21:59;101447.56;;;11.89;100.00
79527;BME280;68974;47.754;-3.364;2024-03-17T03:24:25;101450.31;;;11.89;100.00
79527;BME280;68974;47.754;-3.364;2024-03-17T03:26:50;101451.41;;;11.88;100.00
79527;BME280;68974;47.754;-3.364;2024-03-17T03:29:15;101464.66;;;11.91;100.00
79527;BME280;68974;47.754;-3.364;2024-03-17T03:31:41;101476.19;;;11.88;100.00
79527;BME280;68974;47.754;-3.364;2024-03-17T03:34:07;101459.97;;;11.87;100.00
79527;BME280;68974;47.754;-3.364;2024-03-17T03:36:34;101452.22;;;11.84;100.00
79527;BME280;68974;47.754;-3.364;2024-03-17T03:39:02;101447.03;;;11.87;100.00
79527;BME280;68974;47.754;-3.364;2024-03-17T03:41:29;101450.56;;;11.83;100.00
79527;BME280;68974;47.754;-3.364;2024-03-17T03:43:55;101457.22;;;11.87;100.00
79527;BME280;68974;47.754;-3.364;2024-03-17T03:46:20;101450.03;;;11.86;100.00
79527;BME280;68974;47.754;-3.364;2024-03-17T03:48:46;101451.41;;;11.88;100.00
79527;BME280;68974;47.754;-3.364;2024-03-17T03:51:11;101456.94;;;11.93;100.00
79527;BME280;68974;47.754;-3.364;2024-03-17T03:53:37;101451.44;;;11.93;100.00
79527;BME280;68974;47.754;-3.364;2024-03-17T03:56:04;101454.50;;;12.02;100.00
79527;BME280;68974;47.754;-3.364;2024-03-17T03:58:39;101448.41;;;11.95;100.00
79527;BME280;68974;47.754;-3.364;2024-03-17T04:01:09;101448.97;;;11.92;100.00
79527;BME280;68974;47.754;-3.364;2024-03-17T04:03:36;101453.09;;;11.94;100.00
79527;BME280;68974;47.754;-3.364;2024-03-17T04:06:06;101455.84;;;11.99;100.00
79527;BME280;68974;47.754;-3.364;2024-03-17T04:08:36;101456.94;;;11.93;100.00
79527;BME280;68974;47.754;-3.364;2024-03-17T04:11:03;101455.28;;;11.97;100.00
79527;BME280;68974;47.754;-3.364;2024-03-17T04:13:29;101455.84;;;11.99;100.00
79527;BME280;68974;47.754;-3.364;2024-03-17T04:15:58;101458.03;;;11.97;100.00
79527;BME280;68974;47.754;-3.364;2024-03-17T04:18:25;101450.34;;;11.99;100.00
79527;BME280;68974;47.754;-3.364;2024-03-17T04:20:54;101454.50;;;12.02;100.00
79527;BME280;68974;47.754;-3.364;2024-03-17T04:23:20;101455.03;;;12.09;100.00
79527;BME280;68974;47.754;-3.364;2024-03-17T04:25:47;101455.31;;;12.12;100.00
79527;BME280;68974;47.754;-3.364;2024-03-17T04:28:13;101453.13;;;12.14;100.00
79527;BME280;68974;47.754;-3.364;2024-03-17T04:30:39;101446.78;;;12.14;100.00
79527;BME280;68974;47.754;-3.364;2024-03-17T04:33:05;101447.59;;;12.14;100.00
79527;BME280;68974;47.754;-3.364;2024-03-17T04:35:35;101440.72;;;12.17;100.00
79527;BME280;68974;47.754;-3.364;2024-03-17T04:38:01;101448.16;;;12.17;100.00
79527;BME280;68974;47.754;-3.364;2024-03-17T04:40:26;101442.38;;;12.23;100.00
79527;BME280;68974;47.754;-3.364;2024-03-17T04:42:52;101444.84;;;12.20;100.00
79527;BME280;68974;47.754;-3.364;2024-03-17T04:45:17;101461.38;;;12.30;100.00
79527;BME280;68974;47.754;-3.364;2024-03-17T04:47:43;101458.06;;;12.33;100.00
79527;BME280;68974;47.754;-3.364;2024-03-17T04:50:09;101460.00;;;12.27;100.00
79527;BME280;68974;47.754;-3.364;2024-03-17T04:52:34;101465.25;;;12.29;100.00
79527;BME280;68974;47.754;-3.364;2024-03-17T04:55:00;101464.69;;;12.32;100.00
79527;BME280;68974;47.754;-3.364;2024-03-17T04:57:25;101460.28;;;12.31;100.00
79527;BME280;68974;47.754;-3.364;2024-03-17T04:59:51;101455.88;;;12.40;100.00
79527;BME280;68974;47.754;-3.364;2024-03-17T05:02:16;101457.25;;;12.37;100.00
79527;BME280;68974;47.754;-3.364;2024-03-17T05:04:42;101459.72;;;12.39;100.00
79527;BME280;68974;47.754;-3.364;2024-03-17T05:07:08;101464.69;;;12.42;100.00
79527;BME280;68974;47.754;-3.364;2024-03-17T05:09:34;101480.69;;;12.45;100.00
79527;BME280;68974;47.754;-3.364;2024-03-17T05:12:00;101464.16;;;12.45;100.00
79527;BME280;68974;47.754;-3.364;2024-03-17T05:14:25;101468.00;;;12.44;100.00
79527;BME280;68974;47.754;-3.364;2024-03-17T05:16:51;101468.00;;;12.44;100.00
79527;BME280;68974;47.754;-3.364;2024-03-17T05:19:17;101471.84;;;12.53;100.00
79527;BME280;68974;47.754;-3.364;2024-03-17T05:21:44;101465.81;;;12.46;100.00
79527;BME280;68974;47.754;-3.364;2024-03-17T05:24:10;101481.22;;;12.52;100.00
79527;BME280;68974;47.754;-3.364;2024-03-17T05:26:37;101472.41;;;12.50;100.00
79527;BME280;68974;47.754;-3.364;2024-03-17T05:29:02;101481.22;;;12.52;100.00
79527;BME280;68974;47.754;-3.364;2024-03-17T05:31:28;101488.38;;;12.53;100.00
79527;BME280;68974;47.754;-3.364;2024-03-17T05:33:53;101481.22;;;12.52;100.00
79527;BME280;68974;47.754;-3.364;2024-03-17T05:36:18;101482.59;;;12.49;100.00
79527;BME280;68974;47.754;-3.364;2024-03-17T05:38:45;101481.78;;;12.49;100.00
79527;BME280;68974;47.754;-3.364;2024-03-17T05:41:11;101482.03;;;12.57;100.00
79527;BME280;68974;47.754;-3.364;2024-03-17T05:43:37;101494.47;;;12.55;100.00
79527;BME280;68974;47.754;-3.364;2024-03-17T05:46:09;101501.06;;;12.54;100.00
79527;BME280;68974;47.754;-3.364;2024-03-17T05:48:39;101486.72;;;12.47;100.00
79527;BME280;68974;47.754;-3.364;2024-03-17T05:51:09;101489.78;;;12.45;100.00
79527;BME280;68974;47.754;-3.364;2024-03-17T05:53:35;101487.56;;;12.42;100.00
79527;BME280;68974;47.754;-3.364;2024-03-17T05:56:02;101490.03;;;12.49;100.00
79527;BME280;68974;47.754;-3.364;2024-03-17T05:58:27;101491.13;;;12.43;100.00
79527;BME280;68974;47.754;-3.364;2024-03-17T06:00:53;101488.38;;;12.53;100.00
79527;BME280;68974;47.754;-3.364;2024-03-17T06:03:19;101485.09;;;12.51;100.00
79527;BME280;68974;47.754;-3.364;2024-03-17T06:05:44;101481.50;;;12.45;100.00
79527;BME280;68974;47.754;-3.364;2024-03-17T06:08:14;101476.28;;;12.49;100.00
79527;BME280;68974;47.754;-3.364;2024-03-17T06:10:44;101475.44;;;12.38;100.00
79527;BME280;68974;47.754;-3.364;2024-03-17T06:13:10;101495.00;;;12.42;100.00
79527;BME280;68974;47.754;-3.364;2024-03-17T06:15:42;101490.88;;;12.44;100.00
79527;BME280;68974;47.754;-3.364;2024-03-17T06:18:11;101502.16;;;12.48;100.00
79527;BME280;68974;47.754;-3.364;2024-03-17T06:20:40;101501.06;;;12.49;100.00
79527;BME280;68974;47.754;-3.364;2024-03-17T06:23:07;101504.91;;;12.43;100.00
79527;BME280;68974;47.754;-3.364;2024-03-17T06:28:06;101500.81;;;12.50;100.00
79527;BME280;68974;47.754;-3.364;2024-03-17T06:30:32;101496.13;;;12.46;100.00
79527;BME280;68974;47.754;-3.364;2024-03-17T06:32:58;101492.78;;;12.44;100.00
79527;BME280;68974;47.754;-3.364;2024-03-17T06:35:23;101507.69;;;12.48;100.00
79527;BME280;68974;47.754;-3.364;2024-03-17T06:37:51;101509.34;;;12.49;100.00
79527;BME280;68974;47.754;-3.364;2024-03-17T06:40:17;101506.84;;;12.47;100.00
79527;BME280;68974;47.754;-3.364;2024-03-17T06:42:43;101511.53;;;12.47;100.00
79527;BME280;68974;47.754;-3.364;2024-03-17T06:45:09;101523.13;;;12.54;100.00
79527;BME280;68974;47.754;-3.364;2024-03-17T06:47:38;101519.78;;;12.47;100.00
79527;BME280;68974;47.754;-3.364;2024-03-17T06:50:04;101522.28;;;12.43;100.00
79527;BME280;68974;47.754;-3.364;2024-03-17T06:52:29;101519.78;;;12.42;100.00
79527;BME280;68974;47.754;-3.364;2024-03-17T06:54:56;101514.84;;;12.49;100.00
79527;BME280;68974;47.754;-3.364;2024-03-17T06:57:23;101520.09;;;12.55;100.00
79527;BME280;68974;47.754;-3.364;2024-03-17T06:59:48;101521.19;;;12.54;100.00
79527;BME280;68974;47.754;-3.364;2024-03-17T07:02:14;101523.13;;;12.59;100.00
79527;BME280;68974;47.754;-3.364;2024-03-17T07:04:43;101523.69;;;12.51;100.00
79527;BME280;68974;47.754;-3.364;2024-03-17T07:07:09;101523.69;;;12.51;100.00
79527;BME280;68974;47.754;-3.364;2024-03-17T07:09:34;101524.78;;;12.60;100.00
79527;BME280;68974;47.754;-3.364;2024-03-17T07:12:00;101519.28;;;12.60;100.00
79527;BME280;68974;47.754;-3.364;2024-03-17T07:14:25;101523.66;;;12.61;100.00
79527;BME280;68974;47.754;-3.364;2024-03-17T07:16:51;101531.38;;;12.69;100.00
79527;BME280;68974;47.754;-3.364;2024-03-17T07:19:17;101531.66;;;12.63;100.00
79527;BME280;68974;47.754;-3.364;2024-03-17T07:21:42;101532.22;;;12.70;100.00
79527;BME280;68974;47.754;-3.364;2024-03-17T07:24:08;101530.81;;;12.62;100.00
79527;BME280;68974;47.754;-3.364;2024-03-17T07:26:34;101530.00;;;12.67;100.00
79527;BME280;68974;47.754;-3.364;2024-03-17T07:29:00;101533.03;;;12.70;100.00
79527;BME280;68974;47.754;-3.364;2024-03-17T07:31:25;101545.19;;;12.74;100.00
79527;BME280;68974;47.754;-3.364;2024-03-17T07:33:51;101548.75;;;12.75;100.00
79527;BME280;68974;47.754;-3.364;2024-03-17T07:36:16;101549.03;;;12.73;100.00
79527;BME280;68974;47.754;-3.364;2024-03-17T07:38:42;101544.34;;;12.79;100.00
79527;BME280;68974;47.754;-3.364;2024-03-17T07:41:08;101541.31;;;12.80;100.00
79527;BME280;68974;47.754;-3.364;2024-03-17T07:43:37;101549.59;;;12.80;100.00
79527;BME280;68974;47.754;-3.364;2024-03-17T07:46:08;101559.50;;;12.86;100.00
79527;BME280;68974;47.754;-3.364;2024-03-17T07:48:37;101555.91;;;12.81;100.00
79527;BME280;68974;47.754;-3.364;2024-03-17T07:51:06;101554.53;;;12.83;100.00
79527;BME280;68974;47.754;-3.364;2024-03-17T07:53:33;101547.38;;;12.82;100.00
79527;BME280;68974;47.754;-3.364;2024-03-17T07:56:03;101550.09;;;13.02;100.00
79527;BME280;68974;47.754;-3.364;2024-03-17T07:58:30;101543.50;;;12.98;100.00
79527;BME280;68974;47.754;-3.364;2024-03-17T08:01:04;101546.53;;;12.87;100.00
79527;BME280;68974;47.754;-3.364;2024-03-17T08:03:32;101539.66;;;12.84;100.00
79527;BME280;68974;47.754;-3.364;2024-03-17T08:05:59;101535.25;;;12.88;100.00
79527;BME280;68974;47.754;-3.364;2024-03-17T08:08:26;101539.66;;;12.84;100.00
79527;BME280;68974;47.754;-3.364;2024-03-17T08:10:52;101539.66;;;12.84;100.00
79527;BME280;68974;47.754;-3.364;2024-03-17T08:13:18;101547.94;;;12.79;100.00
79527;BME280;68974;47.754;-3.364;2024-03-17T08:15:45;101549.03;;;12.83;100.00
79527;BME280;68974;47.754;-3.364;2024-03-17T08:18:11;101553.72;;;12.93;100.00
79527;BME280;68974;47.754;-3.364;2024-03-17T08:20:41;101561.13;;;13.08;100.00
79527;BME280;68974;47.754;-3.364;2024-03-17T08:23:07;101572.16;;;13.08;100.00
79527;BME280;68974;47.754;-3.364;2024-03-17T08:25:34;101578.25;;;13.15;100.00
79527;BME280;68974;47.754;-3.364;2024-03-17T08:28:00;101575.50;;;13.15;100.00
79527;BME280;68974;47.754;-3.364;2024-03-17T08:30:25;101569.44;;;13.23;100.00
79527;BME280;68974;47.754;-3.364;2024-03-17T08:32:51;101571.34;;;13.27;100.00
79527;BME280;68974;47.754;-3.364;2024-03-17T08:35:17;101563.59;;;13.29;100.00
79527;BME280;68974;47.754;-3.364;2024-03-17T08:37:43;101560.03;;;13.34;100.00
79527;BME280;68974;47.754;-3.364;2024-03-17T08:40:10;101562.22;;;13.37;100.00
79527;BME280;68974;47.754;-3.364;2024-03-17T08:42:36;101554.22;;;13.35;100.00
79527;BME280;68974;47.754;-3.364;2024-03-17T08:45:02;101551.16;;;13.47;100.00
79527;BME280;68974;47.754;-3.364;2024-03-17T08:47:28;101561.06;;;13.53;100.00
79527;BME280;68974;47.754;-3.364;2024-03-17T08:49:54;101559.09;;;13.59;100.00
79527;BME280;68974;47.754;-3.364;2024-03-17T08:52:19;101554.97;;;13.61;100.00
79527;BME280;68974;47.754;-3.364;2024-03-17T08:54:49;101566.28;;;13.60;99.89
79527;BME280;68974;47.754;-3.364;2024-03-17T08:57:17;101569.03;;;13.65;100.00
79527;BME280;68974;47.754;-3.364;2024-03-17T08:59:45;101581.47;;;13.62;99.66
79527;BME280;68974;47.754;-3.364;2024-03-17T09:02:13;101586.44;;;13.60;99.61
79527;BME280;68974;47.754;-3.364;2024-03-17T09:04:40;101574.84;;;13.63;98.63
79527;BME280;68974;47.754;-3.364;2024-03-17T09:07:06;101584.78;;;13.59;98.56
79527;BME280;68974;47.754;-3.364;2024-03-17T09:09:32;101591.69;;;13.57;98.64
79527;BME280;68974;47.754;-3.364;2024-03-17T09:11:57;101583.94;;;13.59;99.13
79527;BME280;68974;47.754;-3.364;2024-03-17T09:14:22;101587.81;;;13.63;99.15
79527;BME280;68974;47.754;-3.364;2024-03-17T09:16:48;101589.19;;;13.65;98.97
79527;BME280;68974;47.754;-3.364;2024-03-17T09:19:14;101599.13;;;13.66;98.79
79527;BME280;68974;47.754;-3.364;2024-03-17T09:21:39;101593.63;;;13.61;99.21
79527;BME280;68974;47.754;-3.364;2024-03-17T09:24:06;101591.13;;;13.60;99.19
79527;BME280;68974;47.754;-3.364;2024-03-17T09:26:33;101575.94;;;13.62;99.30
79527;BME280;68974;47.754;-3.364;2024-03-17T09:29:04;101582.56;;;13.61;99.43
79527;BME280;68974;47.754;-3.364;2024-03-17T09:31:30;101578.16;;;13.60;99.36
79527;BME280;68974;47.754;-3.364;2024-03-17T09:33:59;101575.38;;;13.60;99.58
79527;BME280;68974;47.754;-3.364;2024-03-17T09:36:24;101578.72;;;13.62;99.61
79527;BME280;68974;47.754;-3.364;2024-03-17T09:38:50;101572.34;;;13.62;99.77
79527;BME280;68974;47.754;-3.364;2024-03-17T09:41:24;101565.16;;;13.66;99.79
79527;BME280;68974;47.754;-3.364;2024-03-17T09:43:55;101578.63;;;13.82;99.64
79527;BME280;68974;47.754;-3.364;2024-03-17T09:46:23;101584.66;;;13.89;99.29
79527;BME280;68974;47.754;-3.364;2024-03-17T09:48:49;101581.94;;;13.84;99.14
79527;BME280;68974;47.754;-3.364;2024-03-17T09:51:20;101590.19;;;13.89;99.26
79527;BME280;68974;47.754;-3.364;2024-03-17T09:53:46;101588.53;;;13.88;99.34
79527;BME280;68974;47.754;-3.364;2024-03-17T09:56:14;101581.94;;;13.84;99.12
79527;BME280;68974;47.754;-3.364;2024-03-17T09:58:52;101589.69;;;13.82;99.11
79527;BME280;68974;47.754;-3.364;2024-03-17T10:01:18;101588.56;;;13.83;99.03
79527;BME280;68974;47.754;-3.364;2024-03-17T10:06:18;101582.50;;;13.81;99.25
79527;BME280;68974;47.754;-3.364;2024-03-17T10:08:47;101589.13;;;13.80;99.14
79527;BME280;68974;47.754;-3.364;2024-03-17T10:11:17;101601.28;;;13.79;99.46
79527;BME280;68974;47.754;-3.364;2024-03-17T10:13:44;101600.13;;;13.91;99.03
79527;BME280;68974;47.754;-3.364;2024-03-17T10:16:24;101607.03;;;13.88;98.00
79527;BME280;68974;47.754;-3.364;2024-03-17T10:18:50;101605.69;;;13.85;98.22
79527;BME280;68974;47.754;-3.364;2024-03-17T10:21:45;101607.81;;;14.04;98.62
79527;BME280;68974;47.754;-3.364;2024-03-17T10:29:33;101597.78;;;14.18;96.93
79527;BME280;68974;47.754;-3.364;2024-03-17T10:32:17;101604.47;;;14.12;96.62
79527;BME280;68974;47.754;-3.364;2024-03-17T10:34:42;101611.09;;;14.16;96.99
79527;BME280;68974;47.754;-3.364;2024-03-17T10:37:09;101602.72;;;14.31;97.57
79527;BME280;68974;47.754;-3.364;2024-03-17T10:39:36;101600.47;;;14.33;96.94
79527;BME280;68974;47.754;-3.364;2024-03-17T10:42:04;101604.34;;;14.32;96.58
79527;BME280;68974;47.754;-3.364;2024-03-17T10:44:35;101606.00;;;14.38;97.15
79527;BME280;68974;47.754;-3.364;2024-03-17T10:47:01;101603.47;;;14.42;97.37
79527;BME280;68974;47.754;-3.364;2024-03-17T10:49:31;101608.09;;;14.56;97.22
79527;BME280;68974;47.754;-3.364;2024-03-17T10:52:05;101609.69;;;14.67;97.05
79527;BME280;68974;47.754;-3.364;2024-03-17T10:54:32;101605.25;;;14.66;96.11
79527;BME280;68974;47.754;-3.364;2024-03-17T10:57:24;101611.31;;;14.73;95.81
79527;BME280;68974;47.754;-3.364;2024-03-17T10:59:53;101612.13;;;14.74;95.34
79527;BME280;68974;47.754;-3.364;2024-03-17T11:02:26;101604.16;;;14.67;95.30
79527;BME280;68974;47.754;-3.364;2024-03-17T11:04:58;101605.31;;;14.56;95.52
79527;BME280;68974;47.754;-3.364;2024-03-17T11:07:24;101618.03;;;14.57;95.62
79527;BME280;68974;47.754;-3.364;2024-03-17T11:09:53;101613.38;;;14.53;95.66
79527;BME280;68974;47.754;-3.364;2024-03-17T11:17:46;101640.81;;;14.34;95.24
79527;BME280;68974;47.754;-3.364;2024-03-17T11:20:22;101622.59;;;14.33;95.85
79527;BME280;68974;47.754;-3.364;2024-03-17T11:22:53;101619.00;;;14.32;95.34
79527;BME280;68974;47.754;-3.364;2024-03-17T11:28:07;101616.72;;;14.50;95.23
79527;BME280;68974;47.754;-3.364;2024-03-17T11:41:40;101617.44;;;14.70;94.36
79527;BME280;68974;47.754;-3.364;2024-03-17T11:46:54;101609.22;;;14.55;93.45
79527;BME280;68974;47.754;-3.364;2024-03-17T11:49:23;101606.44;;;14.60;93.88
79527;BME280;68974;47.754;-3.364;2024-03-17T11:51:50;101594.91;;;14.43;93.88
79527;BME280;68974;47.754;-3.364;2024-03-17T11:54:18;101592.13;;;14.48;94.39
79527;BME280;68974;47.754;-3.364;2024-03-17T11:56:54;101597.28;;;14.65;94.73
79527;BME280;68974;47.754;-3.364;2024-03-17T11:59:20;101602.94;;;14.84;94.34
79527;BME280;68974;47.754;-3.364;2024-03-17T12:01:51;101597.34;;;14.89;93.30
79527;BME280;68974;47.754;-3.364;2024-03-17T12:04:21;101595.66;;;14.93;92.20
79527;BME280;68974;47.754;-3.364;2024-03-17T12:09:20;101582.41;;;14.90;92.42
79527;BME280;68974;47.754;-3.364;2024-03-17T12:14:30;101575.31;;;14.79;92.06
79527;BME280;68974;47.754;-3.364;2024-03-17T12:16:58;101584.69;;;14.83;92.34
79527;BME280;68974;47.754;-3.364;2024-03-17T12:19:25;101576.38;;;14.83;92.46
79527;BME280;68974;47.754;-3.364;2024-03-17T12:21:58;101572.25;;;14.80;92.76
79527;BME280;68974;47.754;-3.364;2024-03-17T12:24:27;101582.16;;;14.86;92.63
79527;BME280;68974;47.754;-3.364;2024-03-17T12:26:54;101585.78;;;14.82;92.40
79527;BME280;68974;47.754;-3.364;2024-03-17T12:29:31;101588.03;;;14.80;92.67
79527;BME280;68974;47.754;-3.364;2024-03-17T12:32:17;101603.44;;;14.86;92.92
79527;BME280;68974;47.754;-3.364;2024-03-17T12:34:45;101588.59;;;14.77;92.10
79527;BME280;68974;47.754;-3.364;2024-03-17T12:37:22;101586.13;;;14.75;92.27
79527;BME280;68974;47.754;-3.364;2024-03-17T12:39:48;101584.16;;;14.81;92.38
79527;BME280;68974;47.754;-3.364;2024-03-17T12:42:15;101589.06;;;14.89;92.40
79527;BME280;68974;47.754;-3.364;2024-03-17T12:47:25;101586.06;;;15.14;91.57
79527;BME280;68974;47.754;-3.364;2024-03-17T12:49:55;101591.56;;;15.19;90.92
79527;BME280;68974;47.754;-3.364;2024-03-17T12:52:28;101581.75;;;15.03;90.08
79527;BME280;68974;47.754;-3.364;2024-03-17T12:57:46;101586.69;;;15.06;90.88
79527;BME280;68974;47.754;-3.364;2024-03-17T13:00:31;101571.81;;;14.97;90.97
79527;BME280;68974;47.754;-3.364;2024-03-17T13:03:03;101567.44;;;14.91;91.08
79527;BME280;68974;47.754;-3.364;2024-03-17T13:05:30;101561.69;;;14.87;90.06
79527;BME280;68974;47.754;-3.364;2024-03-17T13:07:57;101558.69;;;14.84;91.05
79527;BME280;68974;47.754;-3.364;2024-03-17T13:10:24;101559.94;;;14.96;91.53
79527;BME280;68974;47.754;-3.364;2024-03-17T13:13:08;101582.56;;;15.03;91.22
79527;BME280;68974;47.754;-3.364;2024-03-17T13:15:34;101578.59;;;15.14;90.27
79527;BME280;68974;47.754;-3.364;2024-03-17T13:18:03;101561.53;;;15.31;89.05